Time;durP1;ratioP1;P1;durP2;ratioP2;P2;SDS_P1;SDS_P2;PMS_P1;PMS_P2;Temp;Humidity;BMP_temperature;BMP_pressure;BME280_temperature;BME280_humidity;BME280_pressure;Samples;Min_cycle;Max_cycle;Signal;HPM_P1;HPM_P2
2021/10/19 00:01:51;;;;;;;25.15;20.50;;;;;;;8.10;100.00;100078.25;5094761;28;20207;-75
2021/10/19 00:04:18;;;;;;;25.13;19.83;;;;;;;7.98;100.00;100068.84;5094553;28;20197;-74
2021/10/19 00:06:45;;;;;;;28.25;20.27;;;;;;;8.03;100.00;100071.38;5093789;28;20207;-74
2021/10/19 00:09:11;;;;;;;24.83;20.35;;;;;;;8.14;100.00;100074.50;5080974;28;20193;-74
2021/10/19 00:11:38;;;;;;;22.35;19.75;;;;;;;8.09;100.00;100076.47;5094309;28;20195;-74
2021/10/19 00:14:06;;;;;;;26.25;19.92;;;;;;;8.25;100.00;100082.09;5094364;28;20200;-75
2021/10/19 00:16:33;;;;;;;24.50;20.58;;;;;;;8.16;100.00;100077.97;5094559;28;20195;-74
2021/10/19 00:19:00;;;;;;;26.90;21.48;;;;;;;8.06;100.00;100079.28;5092624;28;20280;-74
2021/10/19 00:21:26;;;;;;;25.70;21.15;;;;;;;8.23;100.00;100076.81;5095101;28;20184;-74
2021/10/19 00:23:54;;;;;;;26.15;20.17;;;;;;;8.51;100.00;100068.50;5113527;28;20298;-74
2021/10/19 00:26:21;;;;;;;27.23;19.83;;;;;;;8.65;100.00;100065.22;5085801;28;20212;-75
2021/10/19 00:28:48;;;;;;;22.13;17.83;;;;;;;8.83;100.00;100058.19;5093180;28;20578;-75
2021/10/19 00:31:16;;;;;;;22.25;18.33;;;;;;;9.05;99.85;100051.91;5093897;28;20182;-75
2021/10/19 00:33:43;;;;;;;26.67;19.63;;;;;;;9.19;98.82;100057.50;5091686;28;20197;-75
2021/10/19 00:36:09;;;;;;;22.80;18.95;;;;;;;9.17;98.19;100054.00;5093771;28;20200;-75
2021/10/19 00:38:36;;;;;;;26.60;21.92;;;;;;;9.12;97.65;100059.59;5082277;28;20704;-75
2021/10/19 00:41:03;;;;;;;21.17;18.00;;;;;;;9.18;97.79;100050.41;5073510;28;20209;-75
2021/10/19 00:43:29;;;;;;;26.83;19.58;;;;;;;9.06;97.71;100061.69;5073694;28;20549;-74
2021/10/19 00:45:56;;;;;;;24.05;18.40;;;;;;;8.93;98.52;100059.56;5082376;28;20289;-74
2021/10/19 00:48:26;;;;;;;22.70;18.98;;;;;;;8.71;100.00;100066.78;5088585;28;20195;-74
2021/10/19 00:50:53;;;;;;;22.67;19.73;;;;;;;8.71;100.00;100070.34;5093534;28;20198;-75
2021/10/19 00:53:20;;;;;;;24.40;19.90;;;;;;;8.67;100.00;100067.88;5093709;28;20186;-74
2021/10/19 00:55:47;;;;;;;23.13;19.13;;;;;;;8.70;100.00;100067.72;5092532;28;20543;-75
2021/10/19 00:58:14;;;;;;;27.15;19.70;;;;;;;8.66;100.00;100067.00;5092774;28;20640;-76
2021/10/19 01:00:40;;;;;;;22.67;19.05;;;;;;;8.51;100.00;100062.28;5087371;28;20205;-75
2021/10/19 01:03:07;;;;;;;24.63;19.48;;;;;;;8.51;100.00;100054.22;5090940;28;20193;-75
2021/10/19 01:05:35;;;;;;;23.80;19.88;;;;;;;8.92;100.00;100051.56;5088811;28;20191;-75
2021/10/19 01:08:02;;;;;;;25.27;19.55;;;;;;;9.02;100.00;100055.56;5082356;28;20187;-74
2021/10/19 01:10:29;;;;;;;25.92;18.88;;;;;;;8.98;100.00;100045.91;5093374;28;20530;-74
2021/10/19 01:12:56;;;;;;;25.60;20.27;;;;;;;8.88;100.00;100050.81;5090601;28;20620;-76
2021/10/19 01:15:23;;;;;;;22.70;19.08;;;;;;;8.83;100.00;100052.81;5084777;28;20204;-75
2021/10/19 01:17:51;;;;;;;25.38;20.05;;;;;;;9.24;100.00;100042.03;5087025;28;20304;-73
2021/10/19 01:20:22;;;;;;;28.67;21.88;;;;;;;9.37;100.00;100042.38;5092959;28;20206;-74
2021/10/19 01:22:48;;;;;;;24.42;19.58;;;;;;;9.42;100.00;100044.84;5086835;28;20187;-74
2021/10/19 01:25:18;;;;;;;26.65;21.20;;;;;;;9.30;100.00;100041.78;5086666;28;20197;-75
2021/10/19 01:27:46;;;;;;;25.92;20.08;;;;;;;9.37;100.00;100039.69;5075394;28;20188;-75
2021/10/19 01:30:14;;;;;;;24.67;19.20;;;;;;;9.36;100.00;100038.81;5076214;28;20231;-75
2021/10/19 01:32:40;;;;;;;29.63;20.67;;;;;;;9.37;100.00;100031.63;5084492;28;20201;-75
2021/10/19 01:35:08;;;;;;;25.60;20.05;;;;;;;9.58;100.00;100035.97;5084096;28;20282;-74
2021/10/19 01:37:36;;;;;;;22.80;18.42;;;;;;;9.45;100.00;100037.53;5100641;28;20191;-75
2021/10/19 01:40:03;;;;;;;24.00;19.35;;;;;;;9.30;100.00;100033.72;5092842;28;20217;-76
2021/10/19 01:42:33;;;;;;;25.58;20.80;;;;;;;9.31;100.00;100026.50;5092580;28;20213;-75
2021/10/19 01:45:00;;;;;;;25.60;21.63;;;;;;;9.26;100.00;100032.09;5092233;28;20186;-75
2021/10/19 01:47:27;;;;;;;24.48;18.80;;;;;;;9.33;100.00;100025.50;5090516;28;20191;-75
2021/10/19 01:49:53;;;;;;;24.02;19.63;;;;;;;9.09;100.00;100021.25;5092490;28;20700;-75
2021/10/19 01:52:20;;;;;;;26.77;20.52;;;;;;;9.33;100.00;100027.31;5082753;28;20195;-75
2021/10/19 01:54:48;;;;;;;26.73;19.83;;;;;;;9.67;100.00;100025.75;5088177;28;20187;-76
2021/10/19 01:57:15;;;;;;;26.13;22.05;;;;;;;9.62;100.00;100027.78;5110684;28;20201;-74
2021/10/19 01:59:41;;;;;;;26.50;20.42;;;;;;;9.45;100.00;100028.56;5088328;28;20272;-74
2021/10/19 02:02:08;;;;;;;24.58;19.95;;;;;;;9.39;100.00;100018.97;5072773;28;20531;-75
2021/10/19 02:04:34;;;;;;;24.63;18.02;;;;;;;9.58;100.00;100008.22;5072730;28;20238;-75
2021/10/19 02:07:01;;;;;;;35.78;21.25;;;;;;;9.76;100.00;100015.41;5072274;28;20191;-74
2021/10/19 02:09:28;;;;;;;28.80;22.85;;;;;;;9.70;100.00;100014.81;5077443;28;20284;-74
2021/10/19 02:11:55;;;;;;;26.13;20.15;;;;;;;9.81;100.00;100015.19;5093493;28;20289;-74
2021/10/19 02:14:22;;;;;;;26.55;21.80;;;;;;;10.02;99.91;100013.28;5077862;28;20193;-74
2021/10/19 02:16:49;;;;;;;27.80;20.20;;;;;;;10.09;98.91;100009.34;5085438;28;20192;-76
2021/10/19 02:19:15;;;;;;;26.13;20.25;;;;;;;10.06;97.22;100014.00;5085705;28;20227;-76
2021/10/19 02:21:42;;;;;;;26.00;19.00;;;;;;;10.17;98.56;100003.56;5095932;28;20248;-75
2021/10/19 02:24:09;;;;;;;24.67;20.40;;;;;;;10.06;99.70;100012.16;5095759;28;20226;-75
2021/10/19 02:26:36;;;;;;;22.73;18.55;;;;;;;9.95;99.73;100007.34;5096309;28;20641;-76
2021/10/19 02:29:04;;;;;;;23.77;18.27;;;;;;;9.91;100.00;100005.72;5095648;28;20234;-74
2021/10/19 02:31:31;;;;;;;22.73;19.23;;;;;;;9.78;100.00;99999.19;5088345;28;20177;-76
2021/10/19 02:33:57;;;;;;;23.10;19.42;;;;;;;9.63;100.00;100006.19;5095187;28;20275;-75
2021/10/19 02:36:24;;;;;;;24.55;19.77;;;;;;;9.46;100.00;99995.38;5096475;28;20290;-75
2021/10/19 02:38:52;;;;;;;24.58;20.33;;;;;;;9.53;100.00;99986.94;5095466;28;20192;-75
2021/10/19 02:41:19;;;;;;;24.77;18.95;;;;;;;9.67;100.00;99994.34;5096160;28;20728;-75
2021/10/19 02:43:45;;;;;;;24.05;19.55;;;;;;;9.63;100.00;99994.56;5095974;28;20559;-75
2021/10/19 02:46:14;;;;;;;22.42;19.38;;;;;;;9.58;100.00;99992.94;5095228;28;20188;-75
2021/10/19 02:48:40;;;;;;;25.83;20.55;;;;;;;9.40;100.00;99992.00;5095947;28;20622;-75
2021/10/19 02:51:07;;;;;;;25.23;20.25;;;;;;;9.38;100.00;99990.34;5095855;28;20206;-74
2021/10/19 02:53:34;;;;;;;29.38;21.35;;;;;;;9.39;100.00;99987.59;5090584;28;20190;-75
2021/10/19 02:56:00;;;;;;;26.33;19.80;;;;;;;9.58;100.00;99997.47;5093812;28;20653;-74
2021/10/19 02:58:27;;;;;;;23.15;19.10;;;;;;;9.47;100.00;99999.78;5090486;28;20192;-74
2021/10/19 03:00:53;;;;;;;25.30;20.00;;;;;;;9.54;100.00;99999.44;5091178;28;20211;-75
2021/10/19 03:03:21;;;;;;;26.20;21.38;;;;;;;9.51;100.00;100006.78;5092074;28;20200;-75
2021/10/19 03:05:48;;;;;;;25.77;21.00;;;;;;;9.40;100.00;100005.44;5095978;28;20205;-74
2021/10/19 03:08:15;;;;;;;25.98;20.55;;;;;;;9.51;100.00;100007.63;5086047;28;20597;-75
2021/10/19 03:10:41;;;;;;;26.40;20.05;;;;;;;9.46;100.00;100003.44;5080656;28;20188;-75
2021/10/19 03:13:08;;;;;;;25.15;21.25;;;;;;;9.43;100.00;99993.72;5094490;28;20279;-75
2021/10/19 03:15:34;;;;;;;24.52;19.75;;;;;;;9.43;100.00;100007.16;5095379;28;20194;-76
2021/10/19 03:18:01;;;;;;;22.08;19.10;;;;;;;9.54;100.00;100001.25;5094828;28;20195;-75
2021/10/19 03:20:30;;;;;;;25.83;19.83;;;;;;;9.47;100.00;99994.41;5095413;28;20653;-76
2021/10/19 03:22:57;;;;;;;27.00;20.80;;;;;;;9.48;100.00;100005.09;5093743;28;20187;-75
2021/10/19 03:25:23;;;;;;;24.05;19.83;;;;;;;9.56;100.00;100010.09;5094794;28;20202;-75
2021/10/19 03:27:50;;;;;;;24.02;20.15;;;;;;;9.68;100.00;100014.91;5094318;28;20187;-75
2021/10/19 03:30:17;;;;;;;27.95;21.40;;;;;;;9.62;100.00;100015.19;5094906;28;20266;-76
2021/10/19 03:32:43;;;;;;;29.95;24.20;;;;;;;9.61;100.00;100018.84;5094188;28;20199;-75
2021/10/19 03:35:11;;;;;;;25.58;19.58;;;;;;;9.62;100.00;100020.59;5094558;28;20210;-75
2021/10/19 03:37:39;;;;;;;24.58;19.67;;;;;;;9.82;100.00;100033.06;5096318;28;20274;-75
2021/10/19 03:40:06;;;;;;;26.73;20.33;;;;;;;9.81;100.00;100020.56;5086595;28;20196;-75
2021/10/19 03:42:34;;;;;;;28.60;20.60;;;;;;;9.82;100.00;100025.88;5087238;28;20555;-75
2021/10/19 03:45:01;;;;;;;25.08;20.10;;;;;;;9.87;100.00;100027.47;5095027;28;20184;-75
2021/10/19 03:47:28;;;;;;;25.35;20.63;;;;;;;9.88;100.00;100027.41;5094313;28;20207;-75
2021/10/19 03:49:54;;;;;;;31.70;22.10;;;;;;;10.09;100.00;100019.22;5094144;28;20202;-75
2021/10/19 03:52:21;;;;;;;26.05;20.40;;;;;;;9.99;100.00;100029.56;5093552;28;20219;-75
2021/10/19 03:54:49;;;;;;;26.88;21.25;;;;;;;9.93;100.00;100030.75;5094695;28;20277;-75
2021/10/19 03:57:15;;;;;;;25.85;21.00;;;;;;;10.09;100.00;100025.47;5094354;28;20188;-75
2021/10/19 03:59:42;;;;;;;25.13;18.77;;;;;;;10.15;100.00;100032.38;5094465;28;20210;-75
2021/10/19 04:02:08;;;;;;;26.05;20.00;;;;;;;10.40;100.00;100027.56;5091100;28;20200;-74
2021/10/19 04:04:36;;;;;;;23.67;19.02;;;;;;;10.46;100.00;100023.66;5115315;28;20538;-74
2021/10/19 04:07:03;;;;;;;23.52;18.80;;;;;;;10.67;100.00;100023.50;5106904;28;20672;-74
2021/10/19 04:09:30;;;;;;;22.65;18.67;;;;;;;10.62;100.00;100012.97;5094193;28;20278;-75
2021/10/19 04:11:58;;;;;;;22.38;17.70;;;;;;;10.66;100.00;100009.19;5094532;28;20200;-75
2021/10/19 04:14:25;;;;;;;22.20;17.77;;;;;;;10.54;100.00;100016.06;5089636;28;20199;-76
2021/10/19 04:16:51;;;;;;;23.00;18.88;;;;;;;10.62;100.00;100019.22;5107558;28;20274;-76
2021/10/19 04:19:19;;;;;;;21.90;19.05;;;;;;;10.57;100.00;100013.22;5085231;28;20665;-76
2021/10/19 04:21:47;;;;;;;21.77;18.17;;;;;;;10.68;100.00;100015.34;5092889;28;20231;-75
2021/10/19 04:24:14;;;;;;;22.50;18.25;;;;;;;10.61;100.00;100012.13;5093562;28;20646;-75
2021/10/19 04:26:41;;;;;;;20.13;17.05;;;;;;;10.64;100.00;100009.25;5089873;28;20270;-76
2021/10/19 04:29:09;;;;;;;22.83;18.60;;;;;;;10.77;100.00;100016.72;5077454;28;20311;-74
2021/10/19 04:31:37;;;;;;;25.60;18.83;;;;;;;10.75;100.00;100014.09;5086631;28;20214;-75
2021/10/19 04:34:04;;;;;;;20.67;18.40;;;;;;;10.81;100.00;100018.28;5093545;28;20195;-75
2021/10/19 04:36:31;;;;;;;21.25;18.55;;;;;;;10.77;100.00;100009.50;5093500;28;20192;-75
2021/10/19 04:38:57;;;;;;;23.38;18.95;;;;;;;10.81;100.00;100010.22;5093673;28;20275;-75
2021/10/19 04:41:24;;;;;;;30.10;20.60;;;;;;;10.87;100.00;100007.16;5094019;28;20226;-75
2021/10/19 04:43:51;;;;;;;22.92;18.98;;;;;;;10.87;100.00;100012.56;5093826;28;20187;-75
2021/10/19 04:46:18;;;;;;;25.35;20.42;;;;;;;10.95;100.00;100006.78;5093933;28;20188;-75
2021/10/19 04:48:45;;;;;;;23.17;18.20;;;;;;;10.87;100.00;99995.53;5079838;28;20199;-74
2021/10/19 04:51:12;;;;;;;26.45;19.52;;;;;;;10.90;100.00;100001.63;5080359;28;20613;-74
2021/10/19 04:53:38;;;;;;;25.27;20.80;;;;;;;10.84;100.00;99994.75;5085824;28;20278;-76
2021/10/19 04:56:06;;;;;;;25.13;19.65;;;;;;;10.95;100.00;100004.09;5093742;28;20210;-75
2021/10/19 04:58:33;;;;;;;25.00;20.20;;;;;;;10.97;100.00;99996.81;5092369;28;20271;-75
2021/10/19 05:01:00;;;;;;;27.45;20.67;;;;;;;11.15;100.00;100003.03;5092776;28;20208;-75
2021/10/19 05:03:28;;;;;;;25.52;20.52;;;;;;;11.12;100.00;99998.66;5088867;28;20539;-75
2021/10/19 05:05:54;;;;;;;24.70;20.15;;;;;;;11.20;100.00;100003.63;5093262;28;20187;-76
2021/10/19 05:08:21;;;;;;;26.38;21.10;;;;;;;11.27;100.00;99999.66;5093468;28;20192;-75
2021/10/19 05:10:48;;;;;;;22.20;19.38;;;;;;;11.24;100.00;100006.09;5092709;28;20200;-75
2021/10/19 05:13:14;;;;;;;24.33;20.05;;;;;;;11.39;100.00;100004.34;5093468;28;20188;-75
2021/10/19 05:15:41;;;;;;;24.23;20.70;;;;;;;11.35;100.00;100000.13;5092314;28;20194;-75
2021/10/19 05:18:07;;;;;;;27.75;21.77;;;;;;;11.17;100.00;99993.00;5092834;28;20550;-75
2021/10/19 05:20:36;;;;;;;26.00;20.23;;;;;;;11.21;100.00;99979.28;5093258;28;20644;-75
2021/10/19 05:23:02;;;;;;;23.60;20.05;;;;;;;11.10;100.00;99976.28;5093196;28;20199;-75
2021/10/19 05:25:29;;;;;;;26.60;20.77;;;;;;;11.11;100.00;99990.66;5092625;28;20180;-76
2021/10/19 05:27:56;;;;;;;27.65;22.70;;;;;;;11.27;100.00;99989.72;5092748;28;20302;-76
2021/10/19 05:30:22;;;;;;;23.80;20.10;;;;;;;11.38;100.00;99985.59;5092529;28;20234;-75
2021/10/19 05:32:49;;;;;;;26.25;20.05;;;;;;;11.55;100.00;99992.72;5093154;28;20185;-75
2021/10/19 05:35:16;;;;;;;27.05;20.33;;;;;;;11.34;100.00;99992.09;5089160;28;20292;-75
2021/10/19 05:37:44;;;;;;;25.85;20.90;;;;;;;11.32;100.00;99994.88;5090240;28;20498;-73
2021/10/19 05:40:11;;;;;;;26.25;21.13;;;;;;;11.17;100.00;99993.00;5094511;28;20668;-74
2021/10/19 05:42:38;;;;;;;23.85;21.20;;;;;;;11.21;100.00;99997.28;5092326;28;20212;-74
2021/10/19 05:45:05;;;;;;;30.10;22.05;;;;;;;11.30;100.00;100001.31;5093069;28;20237;-73
2021/10/19 05:47:32;;;;;;;27.48;22.33;;;;;;;11.37;100.00;100000.88;5092310;28;20225;-74
2021/10/19 05:49:59;;;;;;;29.02;23.95;;;;;;;11.33;100.00;100002.03;5092643;28;20541;-74
2021/10/19 05:52:26;;;;;;;24.83;21.48;;;;;;;11.43;100.00;99997.84;5088390;28;20176;-74
2021/10/19 05:54:54;;;;;;;28.85;21.38;;;;;;;11.48;100.00;100002.97;5090056;28;20202;-75
2021/10/19 05:57:20;;;;;;;24.88;21.25;;;;;;;11.58;100.00;100003.38;5092176;28;20190;-75
2021/10/19 05:59:47;;;;;;;24.10;20.83;;;;;;;11.70;100.00;100005.34;5081040;28;20184;-75
2021/10/19 06:02:13;;;;;;;26.90;21.67;;;;;;;11.89;100.00;99992.63;5081065;28;20219;-75
2021/10/19 06:04:40;;;;;;;30.08;19.85;;;;;;;11.88;100.00;99988.16;5078009;28;20283;-74
2021/10/19 06:07:07;;;;;;;24.60;19.42;;;;;;;11.85;100.00;99985.59;5074927;28;20682;-75
2021/10/19 06:09:33;;;;;;;24.25;19.85;;;;;;;11.83;100.00;99976.72;5086865;28;20630;-74
2021/10/19 06:12:01;;;;;;;26.33;23.45;;;;;;;12.07;100.00;99969.09;5092563;28;20196;-74
2021/10/19 06:14:28;;;;;;;23.90;20.17;;;;;;;12.05;100.00;99964.72;5092745;28;20180;-75
2021/10/19 06:16:55;;;;;;;25.75;20.00;;;;;;;11.99;100.00;99957.00;5092772;28;20534;-75
2021/10/19 06:19:21;;;;;;;22.77;19.58;;;;;;;12.15;100.00;99955.13;5091206;28;20200;-74
2021/10/19 06:21:49;;;;;;;24.25;21.33;;;;;;;12.15;100.00;99955.13;5092527;28;20230;-74
2021/10/19 06:24:17;;;;;;;21.42;18.30;;;;;;;12.29;100.00;99974.06;5083954;28;20189;-74
2021/10/19 06:26:44;;;;;;;22.85;18.98;;;;;;;12.33;100.00;99980.16;5081784;28;20196;-75
2021/10/19 06:29:15;;;;;;;22.33;19.95;;;;;;;12.30;100.00;99980.34;5083048;28;20708;-76
2021/10/19 06:31:42;;;;;;;21.63;18.42;;;;;;;12.30;100.00;99977.63;5090680;28;20226;-75
2021/10/19 06:34:09;;;;;;;21.15;17.77;;;;;;;12.36;100.00;99966.47;5083241;28;20201;-75
2021/10/19 06:36:36;;;;;;;21.58;17.92;;;;;;;12.31;100.00;99968.59;5088281;28;20188;-75
2021/10/19 06:39:03;;;;;;;21.27;18.33;;;;;;;12.30;100.00;99966.84;5082911;28;20190;-76
2021/10/19 06:41:31;;;;;;;21.67;18.48;;;;;;;12.38;100.00;99961.84;5092661;28;20211;-75
2021/10/19 06:43:57;;;;;;;20.15;17.92;;;;;;;12.41;100.00;99956.25;5076908;28;20268;-76
2021/10/19 06:46:26;;;;;;;22.10;17.65;;;;;;;12.41;100.00;99964.34;5087746;28;20195;-76
2021/10/19 06:48:52;;;;;;;23.35;17.92;;;;;;;12.52;100.00;99966.41;5087751;28;20486;-76
2021/10/19 06:51:19;;;;;;;27.88;19.92;;;;;;;12.45;100.00;99973.16;5090249;28;20280;-76
2021/10/19 06:53:46;;;;;;;25.92;20.95;;;;;;;12.54;100.00;99983.41;5085651;28;20668;-75
2021/10/19 06:56:12;;;;;;;27.95;21.00;;;;;;;12.50;100.00;99971.03;5080806;28;20306;-75
2021/10/19 06:58:39;;;;;;;26.05;21.63;;;;;;;12.37;100.00;99976.34;5090243;28;20189;-76
2021/10/19 07:01:05;;;;;;;23.70;18.50;;;;;;;12.27;100.00;99962.50;5081269;28;20192;-76
2021/10/19 07:03:33;;;;;;;28.17;21.60;;;;;;;12.30;100.00;99967.72;5087245;28;20218;-76
2021/10/19 07:06:02;;;;;;;21.38;18.83;;;;;;;12.44;100.00;99985.81;5085393;28;20189;-76
2021/10/19 07:08:30;;;;;;;23.67;18.98;;;;;;;12.36;100.00;99989.91;5094629;28;20232;-77
2021/10/19 07:10:56;;;;;;;22.85;18.77;;;;;;;12.47;100.00;99984.75;5084208;28;20184;-76
2021/10/19 07:13:23;;;;;;;22.35;18.90;;;;;;;12.35;100.00;99985.50;5082897;28;20186;-76
2021/10/19 07:15:53;;;;;;;24.48;20.08;;;;;;;12.53;100.00;99981.69;5077472;28;20196;-75
2021/10/19 07:18:20;;;;;;;26.25;20.10;;;;;;;12.55;100.00;99995.06;5095243;28;20197;-76
2021/10/19 07:20:49;;;;;;;23.85;19.92;;;;;;;12.88;100.00;99984.94;5093758;28;20227;-76
2021/10/19 07:23:16;;;;;;;22.55;19.45;;;;;;;12.89;100.00;99988.53;5095201;28;20212;-76
2021/10/19 07:25:43;;;;;;;27.55;22.35;;;;;;;12.86;100.00;99981.44;5083153;28;20283;-77
2021/10/19 07:28:09;;;;;;;29.60;24.38;;;;;;;13.05;100.00;99970.38;5085017;28;20272;-76
2021/10/19 07:30:36;;;;;;;31.25;24.80;;;;;;;13.20;100.00;99971.22;5075205;28;20739;-76
2021/10/19 07:33:03;;;;;;;32.15;26.15;;;;;;;13.32;100.00;99966.94;5074540;28;20285;-76
2021/10/19 07:35:30;;;;;;;31.30;23.38;;;;;;;13.35;100.00;99974.84;5093210;28;20285;-78
2021/10/19 07:37:58;;;;;;;28.05;22.40;;;;;;;13.37;100.00;99982.88;5086360;28;20208;-75
2021/10/19 07:40:24;;;;;;;28.70;23.77;;;;;;;13.40;100.00;99993.50;5079213;28;20205;-76
2021/10/19 07:42:51;;;;;;;34.30;24.98;;;;;;;13.61;100.00;99985.81;5078771;28;20235;-76
2021/10/19 07:45:21;;;;;;;28.10;23.38;;;;;;;13.56;100.00;99981.56;5092938;28;20200;-75
2021/10/19 07:47:48;;;;;;;26.92;22.17;;;;;;;13.69;100.00;99983.50;5092150;28;20566;-74
2021/10/19 07:50:16;;;;;;;27.40;22.40;;;;;;;13.67;100.00;99982.72;5080671;28;20285;-77
2021/10/19 07:52:43;;;;;;;25.88;21.70;;;;;;;13.79;100.00;99979.22;5086393;28;20227;-76
2021/10/19 07:55:12;;;;;;;32.08;24.35;;;;;;;13.86;100.00;99985.97;5084529;28;20270;-77
2021/10/19 07:57:43;;;;;;;29.15;22.38;;;;;;;13.81;100.00;99984.53;5091428;28;20198;-78
2021/10/19 08:00:11;;;;;;;31.90;26.65;;;;;;;13.67;100.00;99980.03;5089169;28;20650;-77
2021/10/19 08:02:41;;;;;;;31.13;23.65;;;;;;;13.66;100.00;99992.69;5092919;28;20242;-77
2021/10/19 08:05:12;;;;;;;30.95;23.75;;;;;;;13.71;100.00;99990.53;5094615;28;20553;-76
2021/10/19 08:07:39;;;;;;;30.27;24.85;;;;;;;13.77;100.00;100000.13;5081517;28;20186;-76
2021/10/19 08:10:06;;;;;;;30.05;25.15;;;;;;;13.81;100.00;99989.94;5093979;28;20212;-75
2021/10/19 08:12:35;;;;;;;29.33;22.60;;;;;;;13.74;100.00;99992.19;5087974;28;20189;-77
2021/10/19 08:15:02;;;;;;;29.65;24.38;;;;;;;13.79;100.00;99990.03;5093906;28;20195;-76
2021/10/19 08:17:29;;;;;;;30.92;23.13;;;;;;;13.79;100.00;99991.88;5086421;28;20178;-75
2021/10/19 08:19:59;;;;;;;29.27;24.73;;;;;;;13.90;100.00;99992.91;5093948;28;20207;-77
2021/10/19 08:22:25;;;;;;;28.33;23.27;;;;;;;13.89;100.00;99985.78;5093367;28;20215;-76
2021/10/19 08:24:52;;;;;;;29.00;22.50;;;;;;;14.02;100.00;99984.94;5093904;28;20203;-75
2021/10/19 08:27:19;;;;;;;30.40;23.13;;;;;;;14.21;100.00;99980.06;5092363;28;20240;-75
2021/10/19 08:29:47;;;;;;;31.50;23.02;;;;;;;14.21;100.00;99985.47;5083748;28;20257;-76
2021/10/19 08:32:13;;;;;;;26.52;22.00;;;;;;;14.29;100.00;99983.13;5074012;28;20187;-75
2021/10/19 08:34:40;;;;;;;36.25;22.40;;;;;;;14.31;100.00;99988.41;5073529;28;20199;-75
2021/10/19 08:37:06;;;;;;;26.27;21.83;;;;;;;14.62;99.91;99991.78;5076302;28;20288;-76
2021/10/19 08:39:33;;;;;;;29.27;22.80;;;;;;;14.80;98.14;99987.81;5081077;28;20212;-75
2021/10/19 08:42:00;;;;;;;26.92;20.63;;;;;;;14.71;98.54;99999.28;5092503;28;20202;-75
2021/10/19 08:44:28;;;;;;;26.05;21.45;;;;;;;14.72;98.02;99993.78;5093731;28;20271;-75
2021/10/19 08:46:56;;;;;;;27.90;22.00;;;;;;;14.92;97.82;99976.09;5088894;28;20561;-74
2021/10/19 08:49:23;;;;;;;28.58;21.40;;;;;;;14.96;96.43;99983.03;5093666;28;20188;-76
2021/10/19 08:51:49;;;;;;;24.77;19.50;;;;;;;14.85;95.96;99982.94;5091235;28;20199;-75
2021/10/19 08:54:16;;;;;;;27.60;21.27;;;;;;;14.95;96.59;99985.88;5091109;28;20267;-76
2021/10/19 08:56:43;;;;;;;26.48;19.73;;;;;;;15.13;94.90;99973.72;5087565;28;20188;-76
2021/10/19 08:59:12;;;;;;;26.35;20.30;;;;;;;15.04;95.54;99978.91;5093433;28;20267;-75
2021/10/19 09:01:41;;;;;;;23.10;20.40;;;;;;;15.45;90.97;99983.25;5093368;28;20614;-75
2021/10/19 09:04:12;;;;;;;25.30;21.38;;;;;;;15.38;91.85;99982.84;5092850;28;20625;-75
2021/10/19 09:06:41;;;;;;;26.20;20.65;;;;;;;15.45;92.26;99992.25;5093301;28;20190;-76
2021/10/19 09:09:10;;;;;;;24.08;20.15;;;;;;;15.67;88.93;99988.84;5092545;28;20275;-76
2021/10/19 09:11:40;;;;;;;25.58;19.83;;;;;;;15.78;89.44;99991.69;5093257;28;20287;-75
2021/10/19 09:14:07;;;;;;;25.63;20.58;;;;;;;15.96;88.81;100000.28;5093150;28;20219;-76
2021/10/19 09:16:38;;;;;;;21.17;18.65;;;;;;;15.83;88.62;99994.06;5092322;28;20642;-75
2021/10/19 09:19:05;;;;;;;20.95;18.20;;;;;;;15.90;88.82;99984.47;5100902;28;20656;-74
2021/10/19 09:21:33;;;;;;;21.23;18.80;;;;;;;15.90;87.81;99981.75;5084044;28;20282;-75
2021/10/19 09:24:25;;;;;;;25.05;19.08;;;;;;;16.15;87.10;99983.50;5076503;28;20684;-74
2021/10/19 09:26:53;;;;;;;19.05;16.63;;;;;;;16.42;83.72;99983.25;5093178;28;20192;-75
2021/10/19 09:29:21;;;;;;;23.10;20.10;;;;;;;16.38;84.56;99989.91;5090710;28;20277;-75
2021/10/19 09:31:51;;;;;;;21.17;18.38;;;;;;;16.22;85.37;99983.91;5092282;28;20182;-73
2021/10/19 09:34:18;;;;;;;19.77;17.35;;;;;;;16.64;84.33;99985.22;5092254;28;20196;-75
2021/10/19 09:36:45;;;;;;;23.42;18.85;;;;;;;16.93;81.76;99982.09;5092905;28;20187;-74
2021/10/19 09:39:12;;;;;;;21.50;19.20;;;;;;;17.12;80.66;99986.06;5092014;28;20196;-75
2021/10/19 09:41:43;;;;;;;22.60;19.13;;;;;;;17.45;79.10;99990.69;5111838;28;20552;-74
2021/10/19 09:44:11;;;;;;;20.67;16.30;;;;;;;17.75;77.14;99981.88;5110952;28;20202;-75
2021/10/19 09:46:40;;;;;;;20.48;18.38;;;;;;;17.90;75.72;99988.81;5099967;28;20186;-76
2021/10/19 09:49:08;;;;;;;24.50;20.60;;;;;;;17.79;75.27;99993.38;5088929;28;20203;-75
2021/10/19 09:51:37;;;;;;;17.63;15.10;;;;;;;17.47;75.59;99985.97;5091637;28;20183;-75
2021/10/19 09:54:08;;;;;;;20.17;14.25;;;;;;;17.42;75.32;99988.22;5091178;28;20200;-76
2021/10/19 09:56:36;;;;;;;16.90;14.98;;;;;;;17.06;78.24;99984.72;5072453;28;20629;-74
2021/10/19 09:59:03;;;;;;;16.70;15.00;;;;;;;17.23;76.56;99989.69;5089345;28;20181;-76
2021/10/19 10:01:30;;;;;;;22.25;14.25;;;;;;;17.47;75.90;99985.97;5089802;28;20214;-74
2021/10/19 10:03:57;;;;;;;19.40;15.23;;;;;;;17.77;75.01;99989.91;5081877;28;20217;-76
2021/10/19 10:06:24;;;;;;;18.80;16.70;;;;;;;17.70;75.80;99982.25;5081912;28;20187;-78
2021/10/19 10:08:51;;;;;;;18.27;14.88;;;;;;;18.10;74.55;99987.16;5087714;28;20230;-77
2021/10/19 10:11:21;;;;;;;17.75;15.23;;;;;;;18.43;72.73;99990.78;5088282;28;20276;-77
2021/10/19 10:13:56;;;;;;;14.50;13.00;;;;;;;18.62;70.57;99991.94;5091146;28;20186;-77
2021/10/19 10:16:23;;;;;;;16.85;14.55;;;;;;;18.61;70.78;99990.19;5080893;28;20197;-76
2021/10/19 10:18:50;;;;;;;18.27;14.98;;;;;;;18.46;72.30;99997.84;5092533;28;20524;-76
2021/10/19 10:21:18;;;;;;;16.05;14.35;;;;;;;18.52;71.04;100000.03;5107600;28;20205;-75
2021/10/19 10:23:45;;;;;;;17.25;14.80;;;;;;;18.39;72.38;99997.47;5092848;28;20609;-78
2021/10/19 10:26:24;;;;;;;18.35;13.88;;;;;;;18.42;72.50;99999.94;5091813;28;20274;-75
2021/10/19 10:28:51;;;;;;;15.90;14.23;;;;;;;18.38;72.76;99994.88;5091625;28;20308;-77
2021/10/19 10:31:21;;;;;;;20.25;15.88;;;;;;;18.35;72.41;99998.72;5091856;28;20199;-77
2021/10/19 10:33:50;;;;;;;21.80;19.50;;;;;;;18.26;73.46;99986.75;5090571;28;20200;-76
2021/10/19 10:36:17;;;;;;;16.40;13.95;;;;;;;18.06;74.36;99991.13;5078790;28;20205;-78
2021/10/19 10:38:55;;;;;;;16.80;15.13;;;;;;;18.07;75.12;99994.75;5087044;28;20282;-76
2021/10/19 10:41:23;;;;;;;15.80;14.25;;;;;;;17.96;75.33;99982.00;5089143;28;20186;-75
2021/10/19 10:43:58;;;;;;;16.80;15.02;;;;;;;18.00;75.61;99975.31;5095693;28;20325;-76
2021/10/19 10:46:25;;;;;;;14.38;12.98;;;;;;;18.02;75.13;99977.88;5095435;28;20186;-76
2021/10/19 10:48:54;;;;;;;20.67;15.23;;;;;;;17.95;76.09;99972.06;5094876;28;20610;-76
2021/10/19 10:51:28;;;;;;;17.65;15.13;;;;;;;18.01;76.34;99974.31;5094792;28;20201;-75
2021/10/19 10:53:55;;;;;;;17.85;15.30;;;;;;;18.06;75.20;99974.78;5088183;28;20188;-74
2021/10/19 10:56:24;;;;;;;16.77;14.95;;;;;;;18.08;75.53;99980.97;5091450;28;20197;-76
2021/10/19 10:58:51;;;;;;;16.80;14.77;;;;;;;18.18;74.71;99970.19;5093652;28;20700;-76
2021/10/19 11:01:21;;;;;;;22.67;19.10;;;;;;;18.43;73.65;99974.44;5094393;28;20195;-76
2021/10/19 11:03:50;;;;;;;16.05;14.43;;;;;;;18.50;73.30;99964.72;5093170;28;20218;-76
2021/10/19 11:06:18;;;;;;;15.40;13.77;;;;;;;18.58;72.65;99974.97;5075405;28;20203;-76
2021/10/19 11:08:47;;;;;;;16.20;14.60;;;;;;;18.62;71.76;99967.41;5075221;28;20191;-76
2021/10/19 11:11:15;;;;;;;17.52;15.02;;;;;;;18.70;72.44;99968.47;5092790;28;20203;-76
2021/10/19 11:13:50;;;;;;;17.30;15.50;;;;;;;18.73;72.66;99964.59;5086494;28;20196;-75